Wilson Maas — 8PSZ — position and weather

sailwx.info

Track history (hours):
 
Tides and Currents Weather Stations Pressure Air Temp Water Temp Dewpoint Dewpoint Depression Visibility Wind Speed Wind Dir Waves Ship Positions

Wilson Maas

Last reported at 2014-Jul-23 12:34 UTC. Time now 2014-Jul-24 02:06 UTC.
Position N 59°18' E 004°36'.

Length 78 m; draft 4.3 m.

Type: Cargo ship. MMSI: 314217000.

Date/timePositionNaut miles runAvg speedWind from/ knotsBaromVisibWave heightAir tempDewpointWater temp
2014-Jul-23 12:34N 59°18' E 004°36'12 9.3
2014-Jul-23 11:18N 59°06' E 004°38'7 9.0
2014-Jul-23 10:33N 58°59' E 004°38'10 9.2
2014-Jul-23 09:30N 58°50' E 004°39'9 9.8
2014-Jul-23 08:34N 58°40' E 004°39'1010.3
2014-Jul-23 07:34N 58°30' E 004°38'247 9.8
2014-Jul-22 06:27N 54°23' E 004°52'1410.1
2014-Jul-22 05:05N 54°10' E 004°52'910.1
2014-Jul-22 04:12N 54°01' E 004°52'710.0
2014-Jul-22 03:28N 53°53' E 004°52'910.1
2014-Jul-22 02:34N 53°44' E 004°52'11 9.9
2014-Jul-22 01:28N 53°33' E 004°49'1010.9
2014-Jul-22 00:31N 53°24' E 004°42'1211.2
2014-Jul-21 23:26N 53°13' E 004°33'1210.8
2014-Jul-21 22:18N 53°02' E 004°24'1110.1
2014-Jul-21 21:11N 52°52' E 004°16'41 8.9
2014-Jul-21 16:34N 52°13' E 003°54'9 8.7
2014-Jul-21 15:33N 52°05' E 003°57'10 9.9
2014-Jul-21 14:33N 51°58' E 004°09'1110.7
2014-Jul-21 13:34N 51°54' E 004°25'0 0.1
2014-Jul-21 12:28N 51°54' E 004°25'0 0.0
2014-Jul-21 11:31N 51°54' E 004°25'0 0.0
2014-Jul-21 10:25N 51°54' E 004°25'0 0.0
2014-Jul-21 09:31N 51°54' E 004°25'0 0.0
2014-Jul-21 08:28N 51°54' E 004°25'0 0.0
2014-Jul-21 07:28N 51°54' E 004°25'0 0.0
2014-Jul-21 06:31N 51°54' E 004°25'0 0.0
2014-Jul-21 05:31N 51°54' E 004°25'0 0.0
2014-Jul-21 04:31N 51°54' E 004°25'0 0.0
2014-Jul-21 03:31N 51°54' E 004°25'0 0.0
2014-Jul-21 02:31N 51°54' E 004°25'0 0.0
2014-Jul-21 01:28N 51°54' E 004°25'0 0.0
2014-Jul-21 00:28N 51°54' E 004°25'0 0.0
2014-Jul-20 23:31N 51°54' E 004°25'0 0.0
2014-Jul-20 22:31N 51°54' E 004°25'0 0.0
2014-Jul-20 21:31N 51°54' E 004°25'0 0.0
2014-Jul-20 20:31N 51°54' E 004°25'0 0.0
2014-Jul-20 19:31N 51°54' E 004°25'0 0.0
2014-Jul-20 18:31N 51°54' E 004°25'4 4.0
2014-Jul-20 17:33N 51°54' E 004°19'9 8.7
2014-Jul-20 16:33N 51°59' E 004°07'8 8.4
2014-Jul-20 15:33N 51°59' E 003°54'11 8.9
2014-Jul-20 14:17N 51°57' E 003°36'17 9.0
2014-Jul-20 12:26N 51°52' E 003°10'29 9.9
2014-Jul-20 09:33N 51°39' E 002°29'1111.1
2014-Jul-20 08:33N 51°30' E 002°17'1211.5
2014-Jul-20 07:31N 51°22' E 002°03'1111.8
2014-Jul-20 06:34N 51°14' E 001°51'1712.4
2014-Jul-20 05:13N 51°00' E 001°36'1312.6
2014-Jul-20 04:09N 50°48' E 001°26'711.2
2014-Jul-20 03:34N 50°42' E 001°21'3510.3
2014-Jul-20 00:12N 50°23' E 000°35'54 8.2
2014-Jul-19 17:33N 49°36' W 000°06'8 7.7
2014-Jul-19 16:33N 49°29' W 000°03'9 8.8
2014-Jul-19 15:33N 49°26' E 000°10'10 9.6
2014-Jul-19 14:33N 49°27' E 000°25'8 6.4
2014-Jul-19 13:22N 49°26' E 000°37'5 0.1
2014-Jul-17 23:27N 49°29' E 000°31'1112.8
2014-Jul-17 22:33N 49°26' E 000°14'1211.7
2014-Jul-17 21:33N 49°28' W 000°03'7 6.9
2014-Jul-17 20:33N 49°30' W 000°13'7 7.0
2014-Jul-17 19:33N 49°33' W 000°23'9 8.7
2014-Jul-17 18:33N 49°37' W 000°35'71 8.8
2014-Jul-17 10:24N 49°53' W 002°23'2512.7
2014-Jul-17 08:28N 49°45' W 002°59'1611.5
2014-Jul-17 07:06N 49°37' W 003°20'710.8
2014-Jul-17 06:25N 49°33' W 003°30'1310.5
2014-Jul-17 05:12N 49°27' W 003°47'7 9.9
2014-Jul-17 04:31N 49°23' W 003°56'47 9.4
2014-Jul-16 23:33N 48°60' W 004°58'1110.6
2014-Jul-16 22:33N 48°55' W 005°12'1111.1
2014-Jul-16 21:33N 48°49' W 005°27'2110.7
2014-Jul-16 19:33N 48°31' W 005°42'2412.1
2014-Jul-16 17:33N 48°07' W 005°32'240 5.0
2014-Jul-14 17:19N 44°15' W 004°04'54 8.8
2014-Jul-14 11:07N 45°08' W 004°25'  
Track history (hours):
 
Tides and Currents Weather Stations Pressure Air Temp Water Temp Dewpoint Dewpoint Depression Visibility Wind Speed Wind Dir Waves Ship Positions

Wilson Maas

Last reported at 2014-Jul-23 12:34 UTC. Time now 2014-Jul-24 02:06 UTC.
Position N 59°18' E 004°36'.

Length 78 m; draft 4.3 m.

Type: Cargo ship. MMSI: 314217000.

Date/timePositionNaut miles runAvg speedWind from/ knotsBaromVisibWave heightAir tempDewpointWater temp
2014-Jul-23 12:34N 59°18' E 004°36'12 9.3
2014-Jul-23 11:18N 59°06' E 004°38'7 9.0
2014-Jul-23 10:33N 58°59' E 004°38'10 9.2
2014-Jul-23 09:30N 58°50' E 004°39'9 9.8
2014-Jul-23 08:34N 58°40' E 004°39'1010.3
2014-Jul-23 07:34N 58°30' E 004°38'247 9.8
2014-Jul-22 06:27N 54°23' E 004°52'1410.1
2014-Jul-22 05:05N 54°10' E 004°52'910.1
2014-Jul-22 04:12N 54°01' E 004°52'710.0
2014-Jul-22 03:28N 53°53' E 004°52'910.1
2014-Jul-22 02:34N 53°44' E 004°52'11 9.9
2014-Jul-22 01:28N 53°33' E 004°49'1010.9
2014-Jul-22 00:31N 53°24' E 004°42'1211.2
2014-Jul-21 23:26N 53°13' E 004°33'1210.8
2014-Jul-21 22:18N 53°02' E 004°24'1110.1
2014-Jul-21 21:11N 52°52' E 004°16'41 8.9
2014-Jul-21 16:34N 52°13' E 003°54'9 8.7
2014-Jul-21 15:33N 52°05' E 003°57'10 9.9
2014-Jul-21 14:33N 51°58' E 004°09'1110.7
2014-Jul-21 13:34N 51°54' E 004°25'0 0.1
2014-Jul-21 12:28N 51°54' E 004°25'0 0.0
2014-Jul-21 11:31N 51°54' E 004°25'0 0.0
2014-Jul-21 10:25N 51°54' E 004°25'0 0.0
2014-Jul-21 09:31N 51°54' E 004°25'0 0.0
2014-Jul-21 08:28N 51°54' E 004°25'0 0.0
2014-Jul-21 07:28N 51°54' E 004°25'0 0.0
2014-Jul-21 06:31N 51°54' E 004°25'0 0.0
2014-Jul-21 05:31N 51°54' E 004°25'0 0.0
2014-Jul-21 04:31N 51°54' E 004°25'0 0.0
2014-Jul-21 03:31N 51°54' E 004°25'0 0.0
2014-Jul-21 02:31N 51°54' E 004°25'0 0.0
2014-Jul-21 01:28N 51°54' E 004°25'0 0.0
2014-Jul-21 00:28N 51°54' E 004°25'0 0.0
2014-Jul-20 23:31N 51°54' E 004°25'0 0.0
2014-Jul-20 22:31N 51°54' E 004°25'0 0.0
2014-Jul-20 21:31N 51°54' E 004°25'0 0.0
2014-Jul-20 20:31N 51°54' E 004°25'0 0.0
2014-Jul-20 19:31N 51°54' E 004°25'0 0.0
2014-Jul-20 18:31N 51°54' E 004°25'4 4.0
2014-Jul-20 17:33N 51°54' E 004°19'9 8.7
2014-Jul-20 16:33N 51°59' E 004°07'8 8.4
2014-Jul-20 15:33N 51°59' E 003°54'11 8.9
2014-Jul-20 14:17N 51°57' E 003°36'17 9.0
2014-Jul-20 12:26N 51°52' E 003°10'29 9.9
2014-Jul-20 09:33N 51°39' E 002°29'1111.1
2014-Jul-20 08:33N 51°30' E 002°17'1211.5
2014-Jul-20 07:31N 51°22' E 002°03'1111.8
2014-Jul-20 06:34N 51°14' E 001°51'1712.4
2014-Jul-20 05:13N 51°00' E 001°36'1312.6
2014-Jul-20 04:09N 50°48' E 001°26'711.2
2014-Jul-20 03:34N 50°42' E 001°21'3510.3
2014-Jul-20 00:12N 50°23' E 000°35'54 8.2
2014-Jul-19 17:33N 49°36' W 000°06'8 7.7
2014-Jul-19 16:33N 49°29' W 000°03'9 8.8
2014-Jul-19 15:33N 49°26' E 000°10'10 9.6
2014-Jul-19 14:33N 49°27' E 000°25'8 6.4
2014-Jul-19 13:22N 49°26' E 000°37'5 0.1
2014-Jul-17 23:27N 49°29' E 000°31'1112.8
2014-Jul-17 22:33N 49°26' E 000°14'1211.7
2014-Jul-17 21:33N 49°28' W 000°03'7 6.9
2014-Jul-17 20:33N 49°30' W 000°13'7 7.0
2014-Jul-17 19:33N 49°33' W 000°23'9 8.7
2014-Jul-17 18:33N 49°37' W 000°35'71 8.8
2014-Jul-17 10:24N 49°53' W 002°23'2512.7
2014-Jul-17 08:28N 49°45' W 002°59'1611.5
2014-Jul-17 07:06N 49°37' W 003°20'710.8
2014-Jul-17 06:25N 49°33' W 003°30'1310.5
2014-Jul-17 05:12N 49°27' W 003°47'7 9.9
2014-Jul-17 04:31N 49°23' W 003°56'47 9.4
2014-Jul-16 23:33N 48°60' W 004°58'1110.6
2014-Jul-16 22:33N 48°55' W 005°12'1111.1
2014-Jul-16 21:33N 48°49' W 005°27'2110.7
2014-Jul-16 19:33N 48°31' W 005°42'2412.1
2014-Jul-16 17:33N 48°07' W 005°32'240 5.0
2014-Jul-14 17:19N 44°15' W 004°04'54 8.8
2014-Jul-14 11:07N 45°08' W 004°25'  

Dump ship's entire track history